2PN4 weather

Quemahening Flightpark Ultralightport
Stoystown, Pennsylvania, United States

Public forecast

Using degrees Fahrenheit for public forecast. Weather courtesy of forecast.io.

Closest aviation weather report (METAR) to Quemahening Flightpark Ultralightport

Closest report is Somerset County Airport, 4.1 nm (7.6 km) SW. Retrieved 2020/06/01 19:15 UTC (10 minutes ago):

K2G9 011915Z AUTO 30006G11KT 10SM CLR 17/00 A3026 RMK AO2

Closest aviation forecast (TAF) to Quemahening Flightpark Ultralightport

Closest forecast is John Murtha Johnstown Cambria County Airport, 15.0 nm (27.7 km) NNE. Retrieved 2020/06/01 18:22 UTC (1 hour ago):

TAF KJST 011720Z 0118/0218 32015KT P6SM SKC FM020000 26005KT P6SM SCT100 BKN250 FM020900 22007KT P6SM -RA OVC035